Sanford, Virginia
Current Conditions -  °F | °C
As of 4:54 PM on Friday 24 Oct 2014 (Local Time) from KWAL Reporting Station
Scattered Clouds Scattered Clouds  
Wind Chill: 66°   Ceiling: Unl
Heat Index: 66°   Visibility: 10mi
Dew Point: 46°   Wind: 13mph
Humidity: 48%   Direction: 300°WNW
Pressure: 29.87"   Gusts: NA
Location:  37.92°N, 75.66°W
Report Text: KWAL 242054Z AUTO 30011KT 10SM SCT250 19/08 A2987 RMK AO2 SLP113 T01890078 55001
Loading
Personal Weather Stations






























Interactive Weather Map
Tropical Storm Tracking
New forecast layout! Learn more

10-Day Weather Forecast

Advertisements
Track Severe Weather on mobile